Time,TemperatureF,DewpointF,PressureIn,WindDirection,WindDirectionDegrees,WindSpeedMPH,WindSpeedGustMPH,Humidity,HourlyPrecipIn,Conditions,Clouds,dailyrainin,SolarRadiationWatts/m^2,SoftwareType,DateUTC
2013-01-10 00:03:00,41.0,27.0,-100.00,WSW,245,9.0,17.0,58,0.00,,,0.00,0.000000,,2013-01-10 05:03:00,
2013-01-10 00:12:00,41.0,27.0,-100.00,WSW,245,9.0,17.0,58,0.00,,,0.00,0.000000,,2013-01-10 05:12:00,
2013-01-10 00:33:00,40.0,26.0,-100.00,West,269,6.0,21.0,58,0.00,,,0.00,0.000000,,2013-01-10 05:33:00,
2013-01-10 00:43:00,40.0,26.0,-100.00,West,269,6.0,21.0,58,0.00,,,0.00,0.000000,,2013-01-10 05:43:00,
2013-01-10 00:53:00,40.0,26.0,-100.00,West,269,6.0,21.0,58,0.00,,,0.00,0.000000,,2013-01-10 05:53:00,
2013-01-10 01:02:00,40.0,26.0,-100.00,West,269,6.0,21.0,58,0.00,,,0.00,0.000000,,2013-01-10 06:02:00,
2013-01-10 01:12:00,40.0,26.0,-100.00,West,269,6.0,21.0,58,0.00,,,0.00,0.000000,,2013-01-10 06:12:00,
2013-01-10 01:32:00,39.0,28.0,-100.00,WNW,285,4.0,29.0,64,0.00,,,0.00,0.000000,,2013-01-10 06:32:00,
2013-01-10 01:42:00,39.0,28.0,-100.00,WNW,285,4.0,29.0,64,0.00,,,0.00,0.000000,,2013-01-10 06:42:00,
2013-01-10 01:52:00,39.0,28.0,-100.00,WNW,285,4.0,29.0,64,0.00,,,0.00,0.000000,,2013-01-10 06:52:00,
2013-01-10 02:02:00,39.0,28.0,-100.00,WNW,285,4.0,29.0,64,0.00,,,0.00,0.000000,,2013-01-10 07:02:00,
2013-01-10 02:12:00,39.0,28.0,-100.00,WNW,285,4.0,29.0,64,0.00,,,0.00,0.000000,,2013-01-10 07:12:00,
2013-01-10 02:42:00,38.0,27.0,-100.00,NW,313,5.0,15.0,64,0.00,,,0.00,0.000000,,2013-01-10 07:42:00,
2013-01-10 02:52:00,38.0,27.0,-100.00,NW,313,5.0,15.0,64,0.00,,,0.00,0.000000,,2013-01-10 07:52:00,
2013-01-10 03:02:00,38.0,27.0,-100.00,NW,313,5.0,15.0,64,0.00,,,0.00,0.000000,,2013-01-10 08:02:00,
2013-01-10 03:12:00,38.0,27.0,-100.00,NW,313,5.0,15.0,64,0.00,,,0.00,0.000000,,2013-01-10 08:12:00,
2013-01-10 03:42:00,39.0,23.0,-100.00,NW,308,7.0,20.0,52,0.00,,,0.00,0.000000,,2013-01-10 08:42:00,
2013-01-10 03:53:00,39.0,23.0,-100.00,NW,308,7.0,20.0,52,0.00,,,0.00,0.000000,,2013-01-10 08:53:00,
2013-01-10 04:02:00,39.0,23.0,-100.00,NW,308,7.0,20.0,52,0.00,,,0.00,0.000000,,2013-01-10 09:02:00,
2013-01-10 04:12:00,39.0,23.0,-100.00,NW,308,7.0,20.0,52,0.00,,,0.00,0.000000,,2013-01-10 09:12:00,
2013-01-10 04:43:00,38.0,20.0,-100.00,NW,324,6.0,20.0,48,0.00,,,0.00,0.000000,,2013-01-10 09:43:00,
2013-01-10 04:53:00,38.0,20.0,-100.00,NW,324,6.0,20.0,48,0.00,,,0.00,0.000000,,2013-01-10 09:53:00,
2013-01-10 05:03:00,38.0,20.0,-100.00,NW,324,6.0,20.0,48,0.00,,,0.00,0.000000,,2013-01-10 10:03:00,
2013-01-10 05:12:00,38.0,20.0,-100.00,NW,324,6.0,20.0,48,0.00,,,0.00,0.000000,,2013-01-10 10:12:00,
2013-01-10 05:33:00,37.0,21.0,-100.00,NNW,347,5.0,14.0,51,0.00,,,0.00,0.000000,,2013-01-10 10:33:00,
2013-01-10 05:43:00,37.0,21.0,-100.00,NNW,347,5.0,14.0,51,0.00,,,0.00,0.000000,,2013-01-10 10:43:00,
2013-01-10 05:53:00,37.0,21.0,-100.00,NNW,347,5.0,14.0,51,0.00,,,0.00,0.000000,,2013-01-10 10:53:00,
2013-01-10 06:03:00,37.0,21.0,-100.00,NNW,347,5.0,14.0,51,0.00,,,0.00,0.000000,,2013-01-10 11:03:00,
2013-01-10 06:12:00,37.0,21.0,-100.00,NNW,347,5.0,14.0,51,0.00,,,0.00,0.000000,,2013-01-10 11:12:00,
2013-01-10 06:43:00,36.0,20.0,-100.00,NW,324,3.0,14.0,52,0.00,,,0.00,0.000000,,2013-01-10 11:43:00,
2013-01-10 06:53:00,36.0,20.0,-100.00,NW,324,3.0,14.0,52,0.00,,,0.00,0.000000,,2013-01-10 11:53:00,
2013-01-10 07:03:00,36.0,20.0,-100.00,NW,324,3.0,14.0,52,0.00,,,0.00,0.000000,,2013-01-10 12:03:00,
2013-01-10 07:12:00,36.0,20.0,-100.00,NW,324,3.0,14.0,52,0.00,,,0.00,0.000000,,2013-01-10 12:12:00,
2013-01-10 09:33:00,39.0,25.0,-100.00,WSW,257,2.0,12.0,56,-99.99,,,0.00,75.000000,,2013-01-10 14:33:00,
2013-01-10 09:43:00,39.0,25.0,-100.00,WSW,257,2.0,12.0,56,-99.99,,,0.00,75.000000,,2013-01-10 14:43:00,
2013-01-10 09:53:00,39.0,25.0,-100.00,WSW,257,2.0,12.0,56,-99.99,,,0.00,75.000000,,2013-01-10 14:53:00,
2013-01-10 10:03:00,39.0,25.0,-100.00,WSW,257,2.0,12.0,56,-99.99,,,0.00,75.000000,,2013-01-10 15:03:00,
2013-01-10 10:12:00,39.0,25.0,-100.00,WSW,257,2.0,12.0,56,-99.99,,,0.00,75.000000,,2013-01-10 15:12:00,
2013-01-10 10:43:00,41.0,22.0,-100.00,NW,309,5.0,11.0,47,0.00,,,0.00,287.000000,,2013-01-10 15:43:00,
2013-01-10 10:53:00,41.0,22.0,-100.00,NW,309,5.0,11.0,47,0.00,,,0.00,287.000000,,2013-01-10 15:53:00,
2013-01-10 11:03:00,41.0,22.0,-100.00,NW,309,5.0,11.0,47,0.00,,,0.00,287.000000,,2013-01-10 16:03:00,
2013-01-10 11:13:00,41.0,22.0,-100.00,NW,309,5.0,11.0,47,0.00,,,0.00,287.000000,,2013-01-10 16:13:00,
2013-01-10 11:43:00,42.0,22.0,-100.00,West,261,8.0,18.0,45,0.00,,,0.00,375.000000,,2013-01-10 16:43:00,
2013-01-10 11:53:00,42.0,22.0,-100.00,West,261,8.0,18.0,45,0.00,,,0.00,375.000000,,2013-01-10 16:53:00,
2013-01-10 12:03:00,42.0,22.0,-100.00,West,261,8.0,18.0,45,0.00,,,0.00,375.000000,,2013-01-10 17:03:00,
2013-01-10 12:12:00,42.0,22.0,-100.00,West,261,8.0,18.0,45,0.00,,,0.00,375.000000,,2013-01-10 17:12:00,
2013-01-10 12:43:00,44.0,23.0,-100.00,WNW,291,6.0,16.0,44,0.00,,,0.00,427.000000,,2013-01-10 17:43:00,
2013-01-10 12:53:00,44.0,23.0,-100.00,WNW,291,6.0,16.0,44,0.00,,,0.00,427.000000,,2013-01-10 17:53:00,
2013-01-10 13:03:00,44.0,23.0,-100.00,WNW,291,6.0,16.0,44,0.00,,,0.00,427.000000,,2013-01-10 18:03:00,
2013-01-10 13:12:00,44.0,23.0,-100.00,WNW,291,6.0,16.0,44,0.00,,,0.00,427.000000,,2013-01-10 18:12:00,
2013-01-10 13:44:00,45.0,23.0,-100.00,NW,317,6.0,17.0,41,0.00,,,0.00,441.000000,,2013-01-10 18:44:00,
2013-01-10 13:53:00,45.0,23.0,-100.00,NW,317,6.0,17.0,41,0.00,,,0.00,441.000000,,2013-01-10 18:53:00,
2013-01-10 14:03:00,45.0,23.0,-100.00,NW,317,6.0,17.0,41,0.00,,,0.00,441.000000,,2013-01-10 19:03:00,
2013-01-10 14:13:00,45.0,23.0,-100.00,NW,317,6.0,17.0,41,0.00,,,0.00,441.000000,,2013-01-10 19:13:00,
2013-01-10 14:43:00,46.0,23.0,-100.00,WNW,297,4.0,13.0,40,0.00,,,-99.99,364.000000,,2013-01-10 19:43:00,
2013-01-10 14:53:00,46.0,23.0,-100.00,WNW,297,4.0,13.0,40,0.00,,,-99.99,364.000000,,2013-01-10 19:53:00,
2013-01-10 15:03:00,46.0,23.0,-100.00,WNW,297,4.0,13.0,40,0.00,,,-99.99,364.000000,,2013-01-10 20:03:00,
2013-01-10 15:13:00,46.0,23.0,-100.00,WNW,297,4.0,13.0,40,0.00,,,-99.99,364.000000,,2013-01-10 20:13:00,
2013-01-10 15:33:00,44.0,22.0,-100.00,NW,326,6.0,14.0,41,0.00,,,0.00,249.000000,,2013-01-10 20:33:00,
2013-01-10 15:43:00,44.0,22.0,-100.00,NW,326,6.0,14.0,41,0.00,,,0.00,249.000000,,2013-01-10 20:43:00,
2013-01-10 15:53:00,44.0,22.0,-100.00,NW,326,6.0,14.0,41,0.00,,,0.00,249.000000,,2013-01-10 20:53:00,
2013-01-10 16:04:00,44.0,22.0,-100.00,NW,326,6.0,14.0,41,0.00,,,0.00,249.000000,,2013-01-10 21:04:00,
2013-01-10 16:13:00,44.0,22.0,-100.00,NW,326,6.0,14.0,41,0.00,,,0.00,249.000000,,2013-01-10 21:13:00,
2013-01-10 16:43:00,39.0,20.0,-100.00,North,353,5.0,11.0,47,0.00,,,0.00,93.000000,,2013-01-10 21:43:00,
2013-01-10 16:53:00,39.0,20.0,-100.00,North,353,5.0,11.0,47,0.00,,,0.00,93.000000,,2013-01-10 21:53:00,
2013-01-10 17:04:00,39.0,20.0,-100.00,North,353,5.0,11.0,47,0.00,,,0.00,93.000000,,2013-01-10 22:04:00,
2013-01-10 17:13:00,39.0,20.0,-100.00,North,353,5.0,11.0,47,0.00,,,0.00,93.000000,,2013-01-10 22:13:00,
2013-01-10 17:44:00,32.0,23.0,-100.00,NE,54,3.0,9.0,68,0.00,,,0.00,4.000000,,2013-01-10 22:44:00,
2013-01-10 18:03:00,32.0,23.0,-100.00,NE,54,3.0,9.0,68,0.00,,,0.00,4.000000,,2013-01-10 23:03:00,
2013-01-10 18:13:00,32.0,23.0,-100.00,NE,54,3.0,9.0,68,0.00,,,0.00,4.000000,,2013-01-10 23:13:00,
2013-01-10 18:43:00,29.0,22.0,-100.00,ENE,76,1.0,5.0,76,0.00,,,0.00,0.000000,,2013-01-10 23:43:00,
2013-01-10 18:53:00,29.0,22.0,-100.00,ENE,76,1.0,5.0,76,0.00,,,0.00,0.000000,,2013-01-10 23:53:00,
2013-01-10 19:03:00,29.0,22.0,-100.00,ENE,76,1.0,5.0,76,0.00,,,0.00,0.000000,,2013-01-11 00:03:00,
2013-01-10 19:13:00,29.0,22.0,-100.00,ENE,76,1.0,5.0,76,0.00,,,0.00,0.000000,,2013-01-11 00:13:00,
2013-01-10 19:43:00,26.0,22.0,-100.00,NW,319,1.0,5.0,84,0.00,,,0.00,0.000000,,2013-01-11 00:43:00,
2013-01-10 19:53:00,26.0,22.0,-100.00,NW,319,1.0,5.0,84,0.00,,,0.00,0.000000,,2013-01-11 00:53:00,
2013-01-10 20:03:00,26.0,22.0,-100.00,NW,319,1.0,5.0,84,0.00,,,0.00,0.000000,,2013-01-11 01:03:00,
2013-01-10 20:13:00,26.0,22.0,-100.00,NW,319,1.0,5.0,84,0.00,,,0.00,0.000000,,2013-01-11 01:13:00,
2013-01-10 20:34:00,24.0,21.0,-100.00,North,354,1.0,3.0,89,0.00,,,0.00,0.000000,,2013-01-11 01:34:00,
2013-01-10 20:53:00,24.0,21.0,-100.00,North,354,1.0,3.0,89,0.00,,,0.00,0.000000,,2013-01-11 01:53:00,
2013-01-10 21:03:00,24.0,21.0,-100.00,North,354,1.0,3.0,89,0.00,,,0.00,0.000000,,2013-01-11 02:03:00,
2013-01-10 21:13:00,24.0,21.0,-100.00,North,354,1.0,3.0,89,0.00,,,0.00,0.000000,,2013-01-11 02:13:00,
2013-01-10 21:44:00,23.0,21.0,-100.00,NE,52,1.0,3.0,91,0.00,,,0.00,0.000000,,2013-01-11 02:44:00,
2013-01-10 21:54:00,23.0,21.0,-100.00,NE,52,1.0,3.0,91,0.00,,,0.00,0.000000,,2013-01-11 02:54:00,
2013-01-10 22:03:00,23.0,21.0,-100.00,NE,52,1.0,3.0,91,0.00,,,0.00,0.000000,,2013-01-11 03:03:00,
2013-01-10 22:13:00,23.0,21.0,-100.00,NE,52,1.0,3.0,91,0.00,,,0.00,0.000000,,2013-01-11 03:13:00,
2013-01-10 22:34:00,22.0,20.0,-100.00,South,171,1.0,4.0,92,0.00,,,0.00,0.000000,,2013-01-11 03:34:00,
2013-01-10 22:43:00,22.0,20.0,-100.00,South,171,1.0,4.0,92,0.00,,,0.00,0.000000,,2013-01-11 03:43:00,
2013-01-10 22:53:00,22.0,20.0,-100.00,South,171,1.0,4.0,92,0.00,,,0.00,0.000000,,2013-01-11 03:53:00,
2013-01-10 23:02:00,22.0,20.0,-100.00,South,171,1.0,4.0,92,0.00,,,0.00,0.000000,,2013-01-11 04:02:00,
2013-01-10 23:12:00,22.0,20.0,-100.00,South,171,1.0,4.0,92,0.00,,,0.00,0.000000,,2013-01-11 04:12:00,
2013-01-10 23:33:00,21.0,19.0,-100.00,South,191,0.0,3.0,92,0.00,,,0.00,0.000000,,2013-01-11 04:33:00,
2013-01-10 23:43:00,21.0,19.0,-100.00,South,191,0.0,3.0,92,0.00,,,0.00,0.000000,,2013-01-11 04:43:00,
2013-01-10 23:53:00,21.0,19.0,-100.00,South,191,0.0,3.0,92,0.00,,,0.00,0.000000,,2013-01-11 04:53:00,